Stratham, New Hampshire
Current Conditions -  °F | °C
As of 7:58 PM on Friday 21 Nov 2014 (Local Time) from KPSM Reporting Station
Clear Clear  
Wind Chill: 17°   Ceiling: Unl
Heat Index: 27°   Visibility: 10mi
Dew Point:   Wind: 9mph
Humidity: 38%   Direction: 280°W
Pressure: 30.32"   Gusts: 17mph
Location:  43.02°N, 70.91°W
Report Text: KPSM 220058Z 28008G15KT 10SM CLR M03/M16 A3032 RMK AO2A SLP272 T10301156
Loading
Personal Weather Stations






























Interactive Weather Map New forecast layout! Learn more

10-Day Weather Forecast

Advertisements
Track Severe Weather on mobile